Greenland, NH (03840)

7:07 AM EST on January 20, 2017 (GMT -0500)
Greenland, NH | | Change Station

Elev 96 ft 43.03 °N, 70.83 °W | Updated 47 seconds ago

Overcast
Overcast
32.9 °F
Feels Like 33 °F
N
0.0
Wind Variable Wind from East
Gusts 0.0 mph

Today
High -- | Low -- °F
--% Chance of Precip.
Yesterday
High -- | Low -- °F
Precip. -- in
Pressure 30.02 in
Visibility 10.0 miles
Clouds Overcast 3000 ft
Windchill 33 °F
Dew Point 32 °F
Humidity 96%
Rainfall 0.00 in
Snow Depth Not available.
7:08 AM 4:40 PM
Last Quarter, 45% visible
METAR KPSM 201158Z 00000KT 10SM OVC030 00/M01 A3001 RMK AO2A SLP166 4/002 T00031015 10018 20001 50003
Pressure 30.02 in
Visibility 10.0 miles
Clouds Overcast 3000 ft
Windchill 33 °F
Dew Point 32 °F
Humidity 96%
Rainfall 0.00 in
Snow Depth Not available.
7:08 AM 4:40 PM
Last Quarter, 45% visible
METAR KPSM 201158Z 00000KT 10SM OVC030 00/M01 A3001 RMK AO2A SLP166 4/002 T00031015 10018 20001 50003

Get Your Daily Forecast Email!

Thanks for signing up!

Be on the lookout for a verification email in your inbox.

You'll start receiving the daily forecast at 8 AM.

×

10-Day Weather Forecast

Almanac

Astronomy

Jan. 20, 2017 Rise Set
Actual Time
Civil Twilight
Nautical Twilight
Astronomical Twilight
Moon
Length of Visible Light
Length of Day
Tomorrow will be .
, % of the Moon is Illuminated

Today's Extremes

State Highs State Lows

Community

WunderPhotos

Upload Photos

1,962,540 photos uploaded!

WunderBlog® & News

Nearby

Air Quality

  Air Quality AQ Index Pollutant
Not available.

Snow Depth

Station Depth Elevation

Earthquake Activity

City Distance Mag. Time & Date
Minimum magnitude displayed is 2.5.

Coastal Water Temperatures

Place Temperature

Stations

Nearby Weather Stations

Station Location Temp. Windchill Dew Point Humidity Wind Precip. Elev Updated Type
                   

Watches & Warnings

Small Craft for Hazardous Seas Advisory
Issued: 3:41 AM EST Jan. 20, 2017 – National Weather Service

... Small Craft Advisory for hazardous seas now in effect until
9 am EST this morning...

* seas... 3 to 5 feet... subsiding to 3 ft.

Precautionary/preparedness actions...

A Small Craft Advisory for hazardous seas means that waves are
expected to be hazardous to small craft. Mariners should avoid
shoaling areas. Long period swell can sharpen into large breaking
waves in shoaling areas. It is not unusual for waves to break
much farther from shoaling areas than is normally experienced.
Remember... breaking waves can easily capsize even larger vessels.